createdAt,value
2018-07-25T00:00:01.606Z,56.90
2018-07-25T00:01:03.867Z,56.90
2018-07-25T00:02:07.110Z,56.70
2018-07-25T00:03:09.609Z,56.70
2018-07-25T00:04:11.855Z,56.80
2018-07-25T00:05:14.526Z,56.60
2018-07-25T00:06:16.855Z,56.80
2018-07-25T00:08:21.549Z,56.70
2018-07-25T00:09:23.795Z,56.80
2018-07-25T00:10:30.782Z,56.80
2018-07-25T00:11:33.675Z,56.90
2018-07-25T00:12:36.010Z,56.90
2018-07-25T00:14:40.752Z,57.60
2018-07-25T00:15:43.016Z,57.60
2018-07-25T00:16:45.492Z,57.50
2018-07-25T00:17:47.801Z,57.50
2018-07-25T00:18:50.853Z,57.20
2018-07-25T00:19:53.078Z,57.10
2018-07-25T00:20:55.541Z,57.20
2018-07-25T00:21:58.243Z,57.40
2018-07-25T00:23:00.533Z,57.20
2018-07-25T00:24:02.875Z,57.20
2018-07-25T00:25:05.335Z,57.50
2018-07-25T00:26:07.722Z,57.30
2018-07-25T00:27:10.415Z,58.10
2018-07-25T00:28:12.898Z,57.40
2018-07-25T00:29:15.199Z,57.40
2018-07-25T00:30:17.902Z,57.40
2018-07-25T00:31:20.679Z,57.40
2018-07-25T00:33:25.593Z,57.30
2018-07-25T00:34:28.089Z,57.40
2018-07-25T00:35:30.741Z,57.30
2018-07-25T00:37:35.593Z,57.30
2018-07-25T00:38:37.890Z,57.60
2018-07-25T00:39:40.829Z,57.60
2018-07-25T00:40:43.569Z,57.50
2018-07-25T00:41:46.050Z,57.50
2018-07-25T00:42:48.663Z,57.70
2018-07-25T00:43:51.191Z,57.80
2018-07-25T00:45:55.761Z,57.80
2018-07-25T00:46:57.977Z,57.90
2018-07-25T00:49:02.526Z,57.90
2018-07-25T00:50:04.805Z,58.00
2018-07-25T00:51:07.558Z,58.10
2018-07-25T00:52:10.305Z,57.90
2018-07-25T00:53:12.714Z,58.10
2018-07-25T00:54:15.019Z,58.00
2018-07-25T00:55:17.263Z,58.10
2018-07-25T00:56:19.703Z,58.10
2018-07-25T00:57:22.458Z,58.10
2018-07-25T00:58:25.461Z,58.20
2018-07-25T00:59:27.887Z,58.20
2018-07-25T01:00:30.287Z,58.20
2018-07-25T01:01:32.598Z,58.20
2018-07-25T01:02:34.846Z,58.40
2018-07-25T01:03:37.329Z,58.40
2018-07-25T01:04:39.741Z,58.50
2018-07-25T01:05:41.984Z,58.60
2018-07-25T01:06:44.405Z,58.50
2018-07-25T01:07:46.650Z,58.50
2018-07-25T01:08:48.934Z,58.50
2018-07-25T01:09:51.160Z,58.70
2018-07-25T01:12:58.301Z,58.80
2018-07-25T01:14:00.635Z,58.80
2018-07-25T01:15:02.910Z,58.90
2018-07-25T01:17:07.691Z,58.80
2018-07-25T01:19:12.213Z,58.90
2018-07-25T01:20:14.495Z,58.80
2018-07-25T01:21:16.782Z,59.00
2018-07-25T01:22:19.100Z,58.80
2018-07-25T01:23:21.380Z,59.00
2018-07-25T01:24:23.617Z,58.90
2018-07-25T01:26:28.112Z,59.20
2018-07-25T01:27:30.393Z,59.10
2018-07-25T01:29:34.901Z,59.10
2018-07-25T01:30:37.133Z,60.00
2018-07-25T01:31:39.413Z,60.40
2018-07-25T01:32:41.681Z,60.00
2018-07-25T01:33:43.913Z,59.70
2018-07-25T01:34:46.137Z,59.70
2018-07-25T01:35:48.393Z,59.60
2018-07-25T01:37:52.858Z,59.60
2018-07-25T01:38:55.106Z,59.60
2018-07-25T01:39:57.326Z,59.70
2018-07-25T01:40:59.549Z,59.70
2018-07-25T01:42:01.807Z,59.80
2018-07-25T01:43:04.074Z,59.90
2018-07-25T01:44:06.825Z,59.70
2018-07-25T01:45:09.114Z,59.70
2018-07-25T01:46:11.391Z,59.70
2018-07-25T01:48:15.810Z,59.90
2018-07-25T01:50:20.321Z,60.00
2018-07-25T01:51:22.589Z,60.10
2018-07-25T01:52:24.809Z,60.30
2018-07-25T01:53:27.032Z,60.30
2018-07-25T01:54:29.253Z,60.40
2018-07-25T01:55:31.493Z,60.40
2018-07-25T01:56:33.742Z,60.70
2018-07-25T01:57:36.006Z,60.90
2018-07-25T01:58:38.230Z,60.80
2018-07-25T01:59:40.474Z,60.80
2018-07-25T02:00:44.749Z,60.80
2018-07-25T02:01:46.990Z,60.80
2018-07-25T02:02:49.212Z,60.80
2018-07-25T02:03:51.446Z,60.80
2018-07-25T02:04:53.660Z,60.80
2018-07-25T02:05:55.881Z,60.80
2018-07-25T02:06:58.108Z,60.80
2018-07-25T02:08:00.354Z,60.80
2018-07-25T02:09:03.881Z,60.80
2018-07-25T02:10:06.139Z,60.80
2018-07-25T02:11:08.345Z,60.80
2018-07-25T02:12:10.627Z,60.60
2018-07-25T02:13:14.916Z,60.80
2018-07-25T02:14:17.146Z,60.90
2018-07-25T02:15:19.405Z,60.90
2018-07-25T02:16:21.673Z,61.10
2018-07-25T02:17:23.916Z,61.10
2018-07-25T02:18:26.154Z,61.50
2018-07-25T02:20:30.669Z,61.70
2018-07-25T02:21:32.911Z,61.70
2018-07-25T02:22:35.191Z,61.60
2018-07-25T02:23:37.406Z,61.40
2018-07-25T02:24:39.630Z,61.40
2018-07-25T02:25:41.877Z,61.50
2018-07-25T02:26:44.143Z,61.40
2018-07-25T02:27:46.394Z,61.50
2018-07-25T02:28:48.634Z,61.40
2018-07-25T02:29:50.878Z,61.70
2018-07-25T02:30:53.103Z,61.60
2018-07-25T02:31:55.330Z,61.60
2018-07-25T02:34:05.405Z,61.20
2018-07-25T02:35:07.630Z,61.10
2018-07-25T02:37:12.144Z,61.20
2018-07-25T02:38:14.371Z,61.20
2018-07-25T02:39:16.606Z,61.40
2018-07-25T02:40:18.848Z,61.40
2018-07-25T02:41:21.096Z,61.60
2018-07-25T02:42:23.362Z,61.70
2018-07-25T02:43:25.585Z,61.60
2018-07-25T02:44:27.824Z,61.80
2018-07-25T02:45:35.758Z,61.80
2018-07-25T02:46:37.990Z,61.90
2018-07-25T02:47:40.277Z,61.80
2018-07-25T02:49:44.778Z,61.90
2018-07-25T02:50:47.021Z,62.10
2018-07-25T02:51:49.269Z,62.10
2018-07-25T02:52:51.512Z,62.40
2018-07-25T02:53:53.740Z,62.30
2018-07-25T02:54:55.970Z,62.40
2018-07-25T02:55:58.230Z,62.50
2018-07-25T02:57:00.492Z,62.30
2018-07-25T02:58:02.775Z,62.40
2018-07-25T02:59:05.022Z,62.50
2018-07-25T03:00:07.429Z,62.50
2018-07-25T03:01:09.655Z,62.70
2018-07-25T03:02:11.890Z,62.70
2018-07-25T03:03:14.126Z,62.70
2018-07-25T03:04:16.349Z,62.80
2018-07-25T03:05:18.577Z,62.90
2018-07-25T03:06:20.818Z,62.90
2018-07-25T03:07:23.034Z,62.90
2018-07-25T03:08:25.290Z,62.90
2018-07-25T03:09:27.527Z,63.10
2018-07-25T03:10:29.758Z,63.10
2018-07-25T03:11:32.005Z,63.10
2018-07-25T03:12:34.227Z,63.30
2018-07-25T03:13:36.474Z,63.30
2018-07-25T03:14:38.695Z,63.20
2018-07-25T03:15:40.918Z,63.40
2018-07-25T03:16:43.140Z,63.30
2018-07-25T03:17:45.411Z,63.30
2018-07-25T03:19:49.867Z,63.30
2018-07-25T03:20:52.102Z,63.30
2018-07-25T03:21:54.354Z,63.30
2018-07-25T03:22:56.598Z,63.30
2018-07-25T03:25:01.090Z,63.30
2018-07-25T03:26:03.367Z,63.20
2018-07-25T03:27:05.842Z,63.20
2018-07-25T03:28:08.022Z,63.10
2018-07-25T03:29:10.251Z,63.20
2018-07-25T03:30:12.469Z,63.30
2018-07-25T03:31:14.771Z,63.70
2018-07-25T03:32:16.957Z,63.70
2018-07-25T03:33:19.242Z,63.70
2018-07-25T03:34:21.466Z,64.00
2018-07-25T03:35:23.693Z,64.10
2018-07-25T03:36:25.930Z,64.30
2018-07-25T03:37:28.181Z,64.20
2018-07-25T03:39:32.694Z,64.30
2018-07-25T03:40:34.947Z,64.30
2018-07-25T03:41:37.178Z,64.10
2018-07-25T03:42:39.405Z,63.80
2018-07-25T03:43:41.653Z,63.90
2018-07-25T03:44:43.889Z,63.80
2018-07-25T03:45:46.274Z,63.60
2018-07-25T03:46:48.524Z,63.70
2018-07-25T03:47:50.762Z,63.60
2018-07-25T03:48:53.005Z,63.80
2018-07-25T03:49:55.235Z,64.80
2018-07-25T03:50:57.459Z,64.70
2018-07-25T03:51:59.703Z,64.50
2018-07-25T03:53:01.931Z,64.80
2018-07-25T03:54:04.352Z,64.50
2018-07-25T03:55:06.610Z,64.30
2018-07-25T03:56:08.985Z,64.50
2018-07-25T03:57:11.239Z,64.30
2018-07-25T03:58:13.470Z,64.40
2018-07-25T03:59:15.710Z,64.30
2018-07-25T04:00:17.961Z,64.30
2018-07-25T04:02:22.454Z,64.50
2018-07-25T04:03:24.670Z,64.30
2018-07-25T04:04:26.910Z,64.20
2018-07-25T04:05:29.158Z,64.20
2018-07-25T04:07:33.650Z,64.80
2018-07-25T04:08:35.865Z,64.90
2018-07-25T04:09:38.111Z,64.90
2018-07-25T04:10:42.618Z,64.80
2018-07-25T04:11:44.829Z,64.80
2018-07-25T04:12:47.054Z,64.80
2018-07-25T04:13:49.288Z,64.70
2018-07-25T04:15:53.765Z,64.70
2018-07-25T04:16:56.011Z,64.80
2018-07-25T04:17:58.253Z,65.10
2018-07-25T04:19:00.486Z,64.60
2018-07-25T04:20:02.781Z,64.90
2018-07-25T04:21:05.245Z,65.00
2018-07-25T04:22:07.494Z,65.00
2018-07-25T04:23:09.763Z,64.90
2018-07-25T04:24:12.008Z,64.80
2018-07-25T04:25:17.221Z,65.20
2018-07-25T04:26:19.643Z,65.00
2018-07-25T04:27:21.898Z,64.60
2018-07-25T04:28:25.131Z,64.90
2018-07-25T04:30:29.594Z,65.00
2018-07-25T04:31:31.826Z,64.80
2018-07-25T04:32:34.070Z,64.90
2018-07-25T04:33:37.378Z,64.80
2018-07-25T04:34:39.673Z,64.90
2018-07-25T04:36:44.129Z,64.90
2018-07-25T04:37:47.107Z,65.00
2018-07-25T04:38:49.366Z,64.90
2018-07-25T04:40:53.850Z,65.20
2018-07-25T04:41:56.131Z,65.00
2018-07-25T04:44:00.621Z,66.00
2018-07-25T04:45:02.941Z,65.20
2018-07-25T04:46:05.261Z,65.40
2018-07-25T04:47:07.457Z,65.40
2018-07-25T04:48:09.696Z,65.30
2018-07-25T04:50:14.260Z,65.40
2018-07-25T04:51:16.499Z,65.00
2018-07-25T04:52:18.780Z,65.00
2018-07-25T04:53:21.038Z,65.10
2018-07-25T04:54:23.233Z,65.20
2018-07-25T04:55:25.477Z,65.80
2018-07-25T04:56:27.722Z,65.80
2018-07-25T04:57:29.989Z,65.50
2018-07-25T04:58:32.221Z,65.70
2018-07-25T04:59:34.453Z,66.20
2018-07-25T05:01:40.019Z,65.50
2018-07-25T05:02:42.253Z,65.40
2018-07-25T05:03:44.478Z,65.80
2018-07-25T05:04:46.760Z,66.10
2018-07-25T05:05:49.510Z,65.40
2018-07-25T05:06:51.717Z,65.50
2018-07-25T05:07:53.945Z,65.40
2018-07-25T05:08:56.214Z,65.50
2018-07-25T05:09:58.466Z,65.20
2018-07-25T05:11:00.709Z,65.00
2018-07-25T05:12:04.566Z,65.20
2018-07-25T05:13:06.801Z,65.40
2018-07-25T05:14:09.050Z,65.20
2018-07-25T05:15:11.358Z,65.00
2018-07-25T05:17:15.945Z,65.00
2018-07-25T05:18:18.182Z,64.60
2018-07-25T05:19:20.414Z,64.90
2018-07-25T05:20:22.686Z,64.70
2018-07-25T05:21:24.909Z,64.70
2018-07-25T05:22:27.118Z,64.70
2018-07-25T05:23:29.358Z,64.80
2018-07-25T05:24:31.598Z,64.80
2018-07-25T05:25:33.858Z,64.70
2018-07-25T05:26:36.127Z,64.70
2018-07-25T05:27:38.367Z,64.80
2018-07-25T05:28:40.601Z,64.70
2018-07-25T05:30:45.070Z,64.70
2018-07-25T05:31:47.344Z,64.70
2018-07-25T05:32:49.590Z,64.80
2018-07-25T05:33:51.802Z,64.80
2018-07-25T05:35:56.301Z,64.80
2018-07-25T05:36:58.549Z,64.80
2018-07-25T05:38:00.808Z,64.90
2018-07-25T05:39:05.118Z,64.50
2018-07-25T05:40:07.345Z,64.20
2018-07-25T05:41:09.542Z,64.00
2018-07-25T05:42:11.749Z,64.00
2018-07-25T05:43:14.010Z,63.90
2018-07-25T05:44:16.254Z,63.60
2018-07-25T05:45:18.547Z,63.50
2018-07-25T05:46:20.777Z,62.90
2018-07-25T05:47:22.989Z,62.90
2018-07-25T05:48:25.294Z,62.60
2018-07-25T05:49:27.629Z,62.70
2018-07-25T05:50:29.819Z,62.50
2018-07-25T05:51:32.117Z,61.90
2018-07-25T05:52:34.346Z,61.40
2018-07-25T05:53:36.560Z,61.60
2018-07-25T05:54:38.785Z,61.70
2018-07-25T05:55:41.014Z,61.70
2018-07-25T05:56:43.259Z,61.70
2018-07-25T05:57:45.425Z,61.60
2018-07-25T05:58:47.674Z,61.70
2018-07-25T05:59:49.871Z,61.40
2018-07-25T06:00:52.164Z,60.80
2018-07-25T06:01:54.351Z,61.10
2018-07-25T06:03:58.887Z,60.80
2018-07-25T06:05:01.140Z,61.70
2018-07-25T06:06:03.461Z,61.80
2018-07-25T06:07:06.305Z,60.60
2018-07-25T06:08:08.658Z,60.40
2018-07-25T06:09:11.366Z,60.40
2018-07-25T06:10:13.757Z,60.40
2018-07-25T06:11:16.001Z,60.20
2018-07-25T06:12:18.241Z,60.10
2018-07-25T06:13:20.489Z,59.50
2018-07-25T06:14:22.785Z,59.40
2018-07-25T06:15:25.614Z,59.40
2018-07-25T06:16:27.886Z,59.30
2018-07-25T06:17:30.119Z,59.10
2018-07-25T06:19:34.606Z,59.70
2018-07-25T06:20:36.946Z,59.00
2018-07-25T06:21:39.141Z,58.90
2018-07-25T06:22:41.385Z,58.90
2018-07-25T06:23:43.626Z,58.90
2018-07-25T06:24:45.925Z,58.80
2018-07-25T06:25:48.167Z,58.80
2018-07-25T06:26:50.355Z,58.60
2018-07-25T06:27:52.712Z,58.50
2018-07-25T06:28:54.897Z,58.60
2018-07-25T06:29:57.147Z,58.60
2018-07-25T06:30:59.437Z,58.40
2018-07-25T06:32:01.697Z,58.60
2018-07-25T06:33:03.934Z,58.70
2018-07-25T06:34:06.185Z,58.50
2018-07-25T06:35:08.401Z,58.20
2018-07-25T06:36:10.650Z,58.60
2018-07-25T06:37:12.900Z,58.80
2018-07-25T06:38:15.189Z,58.50
2018-07-25T06:40:19.677Z,58.40
2018-07-25T06:41:21.962Z,57.80
2018-07-25T06:43:26.469Z,58.20
2018-07-25T06:44:28.674Z,58.10
2018-07-25T06:45:30.921Z,58.10
2018-07-25T06:46:33.166Z,58.40
2018-07-25T06:47:35.613Z,58.30
2018-07-25T06:48:37.873Z,58.50
2018-07-25T06:49:40.065Z,58.50
2018-07-25T06:50:42.327Z,58.00
2018-07-25T06:51:44.598Z,57.80
2018-07-25T06:52:46.858Z,57.60
2018-07-25T06:53:49.094Z,57.70
2018-07-25T06:54:51.297Z,57.70
2018-07-25T06:55:53.512Z,58.40
2018-07-25T06:56:55.771Z,57.70
2018-07-25T06:57:58.033Z,57.90
2018-07-25T06:59:00.289Z,57.70
2018-07-25T07:01:04.957Z,58.00
2018-07-25T07:02:07.217Z,58.10
2018-07-25T07:03:09.506Z,58.00
2018-07-25T07:04:11.709Z,58.30
2018-07-25T07:05:13.958Z,58.10
2018-07-25T07:06:16.186Z,58.00
2018-07-25T07:07:18.385Z,57.70
2018-07-25T07:08:20.622Z,57.70
2018-07-25T07:10:25.132Z,57.80
2018-07-25T07:11:27.349Z,57.80
2018-07-25T07:12:29.579Z,57.70
2018-07-25T07:13:31.798Z,58.20
2018-07-25T07:14:34.224Z,57.20
2018-07-25T07:15:36.469Z,57.70
2018-07-25T07:16:38.697Z,57.40
2018-07-25T07:17:41.590Z,57.10
2018-07-25T07:19:46.217Z,57.00
2018-07-25T07:20:48.463Z,56.70
2018-07-25T07:21:50.710Z,57.10
2018-07-25T07:23:55.219Z,57.10
2018-07-25T07:24:57.410Z,57.00
2018-07-25T07:25:59.635Z,56.80
2018-07-25T07:27:01.824Z,56.90
2018-07-25T07:28:04.133Z,56.80
2018-07-25T07:29:06.346Z,56.50
2018-07-25T07:30:08.567Z,56.40
2018-07-25T07:31:10.763Z,56.40
2018-07-25T07:32:12.972Z,56.40
2018-07-25T07:33:15.222Z,56.70
2018-07-25T07:34:17.478Z,56.90
2018-07-25T07:35:19.706Z,56.70
2018-07-25T07:36:21.903Z,56.70
2018-07-25T07:37:24.190Z,56.70
2018-07-25T07:38:26.370Z,56.80
2018-07-25T07:40:30.806Z,56.70
2018-07-25T07:41:32.995Z,56.70
2018-07-25T07:42:35.269Z,56.60
2018-07-25T07:43:37.452Z,56.60
2018-07-25T07:44:39.666Z,56.30
2018-07-25T07:45:41.849Z,56.40
2018-07-25T07:46:44.111Z,56.60
2018-07-25T07:47:46.398Z,56.30
2018-07-25T07:48:48.627Z,56.20
2018-07-25T07:49:50.829Z,56.30
2018-07-25T07:50:53.033Z,56.40
2018-07-25T07:51:55.239Z,56.80
2018-07-25T07:52:57.462Z,56.20
2018-07-25T07:53:59.902Z,55.80
2018-07-25T07:55:02.169Z,55.80
2018-07-25T07:56:04.469Z,55.80
2018-07-25T07:57:06.691Z,55.70
2018-07-25T07:58:08.922Z,55.70
2018-07-25T07:59:11.126Z,55.40
2018-07-25T08:00:13.349Z,55.40
2018-07-25T08:01:15.530Z,55.40
2018-07-25T08:02:17.712Z,55.40
2018-07-25T08:03:19.902Z,55.40
2018-07-25T08:04:22.157Z,55.50
2018-07-25T08:05:24.364Z,54.90
2018-07-25T08:06:26.581Z,54.70
2018-07-25T08:07:28.809Z,54.50
2018-07-25T08:08:31.111Z,54.50
2018-07-25T08:09:33.330Z,54.40
2018-07-25T08:10:35.606Z,54.10
2018-07-25T08:11:37.798Z,54.30
2018-07-25T08:12:40.280Z,54.10
2018-07-25T08:13:42.494Z,53.70
2018-07-25T08:14:44.665Z,53.90
2018-07-25T08:15:46.892Z,53.70
2018-07-25T08:16:49.069Z,54.00
2018-07-25T08:17:51.284Z,53.50
2018-07-25T08:18:53.506Z,53.10
2018-07-25T08:19:55.908Z,53.00
2018-07-25T08:20:58.219Z,53.20
2018-07-25T08:22:00.514Z,53.30
2018-07-25T08:23:09.442Z,53.20
2018-07-25T08:24:11.617Z,53.10
2018-07-25T08:25:13.797Z,52.90
2018-07-25T08:26:15.971Z,53.00
2018-07-25T08:27:18.184Z,52.90
2018-07-25T08:28:20.406Z,52.90
2018-07-25T08:29:22.604Z,52.90
2018-07-25T08:30:24.806Z,53.00
2018-07-25T08:32:29.246Z,52.60
2018-07-25T08:33:31.466Z,52.50
2018-07-25T08:34:33.718Z,52.20
2018-07-25T08:35:35.861Z,52.40
2018-07-25T08:36:38.046Z,52.40
2018-07-25T08:37:40.258Z,52.30
2018-07-25T08:38:43.653Z,52.40
2018-07-25T08:39:45.850Z,52.20
2018-07-25T08:40:48.062Z,51.80
2018-07-25T08:41:50.259Z,52.00
2018-07-25T08:42:52.438Z,51.90
2018-07-25T08:43:54.648Z,51.20
2018-07-25T08:44:56.844Z,51.30
2018-07-25T08:45:59.149Z,51.10
2018-07-25T08:47:01.490Z,51.10
2018-07-25T08:48:03.748Z,51.00
2018-07-25T08:50:08.921Z,50.80
2018-07-25T08:51:11.134Z,50.90
2018-07-25T08:52:13.334Z,50.20
2018-07-25T08:53:15.558Z,49.80
2018-07-25T08:55:19.977Z,50.20
2018-07-25T08:57:24.418Z,49.80
2018-07-25T08:58:26.788Z,48.20
2018-07-25T08:59:28.995Z,48.60
2018-07-25T09:00:31.297Z,48.70
2018-07-25T09:01:33.486Z,48.60
2018-07-25T09:02:35.690Z,48.00
2018-07-25T09:03:37.884Z,47.90
2018-07-25T09:04:40.098Z,47.70
2018-07-25T09:05:42.305Z,46.90
2018-07-25T09:06:44.494Z,47.00
2018-07-25T09:07:46.678Z,46.70
2018-07-25T09:08:48.878Z,47.00
2018-07-25T09:09:51.114Z,47.00
2018-07-25T09:10:53.359Z,47.00
2018-07-25T09:11:55.583Z,47.10
2018-07-25T09:12:57.854Z,46.90
2018-07-25T09:14:00.035Z,46.50
2018-07-25T09:16:04.566Z,45.60
2018-07-25T09:17:06.811Z,45.00
2018-07-25T09:18:09.073Z,45.40
2018-07-25T09:19:11.231Z,45.40
2018-07-25T09:21:15.662Z,45.00
2018-07-25T09:22:17.877Z,44.80
2018-07-25T09:23:20.086Z,44.60
2018-07-25T09:24:22.392Z,44.20
2018-07-25T09:25:24.629Z,43.50
2018-07-25T09:26:26.789Z,43.20
2018-07-25T09:27:29.006Z,43.40
2018-07-25T09:28:31.250Z,43.00
2018-07-25T09:29:33.457Z,43.60
2018-07-25T09:30:35.748Z,44.00
2018-07-25T09:31:37.925Z,43.80
2018-07-25T09:32:40.137Z,43.70
2018-07-25T09:33:42.358Z,44.20
2018-07-25T09:34:44.585Z,42.40
2018-07-25T09:35:46.797Z,42.00
2018-07-25T09:36:49.015Z,42.30
2018-07-25T09:37:51.220Z,42.10
2018-07-25T09:38:53.418Z,42.60
2018-07-25T09:39:55.614Z,42.60
2018-07-25T09:40:57.863Z,43.00
2018-07-25T09:42:00.057Z,42.90
2018-07-25T09:43:02.283Z,42.40
2018-07-25T09:44:04.543Z,42.00
2018-07-25T09:45:07.143Z,41.70
2018-07-25T09:46:09.369Z,41.50
2018-07-25T09:47:11.571Z,41.90
2018-07-25T09:48:13.762Z,42.30
2018-07-25T09:49:16.120Z,41.80
2018-07-25T09:50:18.349Z,41.70
2018-07-25T09:52:22.803Z,41.10
2018-07-25T09:53:25.002Z,40.70
2018-07-25T09:54:27.170Z,40.90
2018-07-25T09:55:29.407Z,41.10
2018-07-25T09:56:31.621Z,41.60
2018-07-25T09:57:33.878Z,41.20
2018-07-25T09:58:36.108Z,40.80
2018-07-25T10:00:46.469Z,39.80
2018-07-25T10:01:48.670Z,39.80
2018-07-25T10:02:50.882Z,40.30
2018-07-25T10:03:53.082Z,40.40
2018-07-25T10:04:55.305Z,40.30
2018-07-25T10:05:57.526Z,39.80
2018-07-25T10:08:02.023Z,40.20
2018-07-25T10:09:07.315Z,39.70
2018-07-25T10:10:09.538Z,39.10
2018-07-25T10:11:11.729Z,38.80
2018-07-25T10:12:14.008Z,38.40
2018-07-25T10:13:16.189Z,38.80
2018-07-25T10:14:18.378Z,37.90
2018-07-25T10:15:20.626Z,37.90
2018-07-25T10:17:25.435Z,38.40
2018-07-25T10:18:27.676Z,37.80
2018-07-25T10:19:29.865Z,37.60
2018-07-25T10:20:32.126Z,37.50
2018-07-25T10:21:34.746Z,37.90
2018-07-25T10:23:39.216Z,37.10
2018-07-25T10:25:43.750Z,36.40
2018-07-25T10:26:45.976Z,36.70
2018-07-25T10:27:48.184Z,37.10
2018-07-25T10:28:50.350Z,36.80
2018-07-25T10:29:52.575Z,36.70
2018-07-25T10:30:54.750Z,36.70
2018-07-25T10:31:56.971Z,36.40
2018-07-25T10:32:59.159Z,35.00
2018-07-25T10:34:01.346Z,35.50
2018-07-25T10:35:03.622Z,34.90
2018-07-25T10:36:05.881Z,35.10
2018-07-25T10:37:08.075Z,35.20
2018-07-25T10:38:10.258Z,34.40
2018-07-25T10:39:12.454Z,34.80
2018-07-25T10:40:14.674Z,34.90
2018-07-25T10:41:16.917Z,34.80
2018-07-25T10:42:19.168Z,34.50
2018-07-25T10:43:21.385Z,35.20
2018-07-25T10:44:23.581Z,34.70
2018-07-25T10:45:25.828Z,35.20
2018-07-25T10:46:28.023Z,34.70
2018-07-25T10:47:30.269Z,35.00
2018-07-25T10:48:32.610Z,35.00
2018-07-25T10:49:34.825Z,34.90
2018-07-25T10:50:37.041Z,34.50
2018-07-25T10:51:39.246Z,34.60
2018-07-25T10:52:41.466Z,34.50
2018-07-25T10:53:43.679Z,34.80
2018-07-25T10:54:46.039Z,34.70
2018-07-25T10:55:48.286Z,34.80
2018-07-25T10:56:50.480Z,34.50
2018-07-25T10:57:52.671Z,34.80
2018-07-25T10:58:54.899Z,34.30
2018-07-25T10:59:57.125Z,34.60
2018-07-25T11:00:59.437Z,34.40
2018-07-25T11:02:01.750Z,34.30
2018-07-25T11:03:03.955Z,34.40
2018-07-25T11:04:06.165Z,34.70
2018-07-25T11:05:08.358Z,34.20
2018-07-25T11:06:10.590Z,33.70
2018-07-25T11:07:12.791Z,33.70
2018-07-25T11:08:14.995Z,34.00
2018-07-25T11:09:17.210Z,34.10
2018-07-25T11:10:19.445Z,33.90
2018-07-25T11:11:21.696Z,33.60
2018-07-25T11:13:26.177Z,33.40
2018-07-25T11:15:30.674Z,33.80
2018-07-25T11:16:32.967Z,34.00
2018-07-25T11:17:35.094Z,33.60
2018-07-25T11:18:37.338Z,34.20
2018-07-25T11:19:39.559Z,34.10
2018-07-25T11:20:41.802Z,33.90
2018-07-25T11:21:44.041Z,33.00
2018-07-25T11:22:46.278Z,33.20
2018-07-25T11:23:48.481Z,32.80
2018-07-25T11:24:50.886Z,33.00
2018-07-25T11:25:54.050Z,32.90
2018-07-25T11:26:56.356Z,32.70
2018-07-25T11:27:58.575Z,32.30
2018-07-25T11:29:00.778Z,32.30
2018-07-25T11:30:03.068Z,32.20
2018-07-25T11:31:05.838Z,32.40
2018-07-25T11:32:08.061Z,31.90
2018-07-25T11:33:10.268Z,31.40
2018-07-25T11:34:12.487Z,32.00
2018-07-25T11:35:14.682Z,32.40
2018-07-25T11:36:16.900Z,32.50
2018-07-25T11:38:21.488Z,32.00
2018-07-25T11:39:23.696Z,31.20
2018-07-25T11:41:28.277Z,31.20
2018-07-25T11:42:30.485Z,30.60
2018-07-25T11:43:32.686Z,30.60
2018-07-25T11:44:34.930Z,30.60
2018-07-25T11:45:37.131Z,30.70
2018-07-25T11:46:39.342Z,30.70
2018-07-25T11:47:41.553Z,30.70
2018-07-25T11:48:43.758Z,30.70
2018-07-25T11:49:45.978Z,30.80
2018-07-25T11:50:48.177Z,31.20
2018-07-25T11:51:50.414Z,30.70
2018-07-25T11:52:52.631Z,30.80
2018-07-25T11:53:54.866Z,30.80
2018-07-25T11:54:57.109Z,30.80
2018-07-25T11:55:59.310Z,30.90
2018-07-25T11:57:01.535Z,30.90
2018-07-25T11:58:04.195Z,31.00
2018-07-25T11:59:06.542Z,30.70
2018-07-25T12:00:08.770Z,30.20
2018-07-25T12:01:11.035Z,31.00
2018-07-25T12:02:13.215Z,29.70
2018-07-25T12:04:17.678Z,29.30
2018-07-25T12:05:19.880Z,28.60
2018-07-25T12:06:22.099Z,28.60
2018-07-25T12:07:24.357Z,28.50
2018-07-25T12:08:26.579Z,28.70
2018-07-25T12:09:28.799Z,27.70
2018-07-25T12:10:31.058Z,28.10
2018-07-25T12:11:34.943Z,28.40
2018-07-25T12:12:37.177Z,28.70
2018-07-25T12:13:39.418Z,28.80
2018-07-25T12:14:41.645Z,28.90
2018-07-25T12:15:43.883Z,29.10
2018-07-25T12:16:46.106Z,29.20
2018-07-25T12:17:48.345Z,29.30
2018-07-25T12:18:50.550Z,29.90
2018-07-25T12:19:52.770Z,30.10
2018-07-25T12:20:54.993Z,29.80
2018-07-25T12:21:57.233Z,30.00
2018-07-25T12:22:59.487Z,29.90
2018-07-25T12:24:01.721Z,29.80
2018-07-25T12:25:05.135Z,29.80
2018-07-25T12:26:07.366Z,30.00
2018-07-25T12:27:10.314Z,29.80
2018-07-25T12:28:12.630Z,30.00
2018-07-25T12:29:14.854Z,29.80
2018-07-25T12:30:17.098Z,30.10
2018-07-25T12:31:19.352Z,30.10
2018-07-25T12:32:21.606Z,30.10
2018-07-25T12:33:23.828Z,30.40
2018-07-25T12:34:26.027Z,30.00
2018-07-25T12:35:28.213Z,29.60
2018-07-25T12:36:30.465Z,29.70
2018-07-25T12:37:32.729Z,29.60
2018-07-25T12:38:34.934Z,29.00
2018-07-25T12:39:37.150Z,29.50
2018-07-25T12:40:39.400Z,28.80
2018-07-25T12:41:41.621Z,28.70
2018-07-25T12:42:43.890Z,29.10
2018-07-25T12:43:46.174Z,29.20
2018-07-25T12:44:48.417Z,28.80
2018-07-25T12:45:50.625Z,28.60
2018-07-25T12:46:52.830Z,28.80
2018-07-25T12:47:55.044Z,29.00
2018-07-25T12:48:57.233Z,29.10
2018-07-25T12:49:59.432Z,28.30
2018-07-25T12:51:01.686Z,28.30
2018-07-25T12:52:03.902Z,28.30
2018-07-25T12:53:06.352Z,27.90
2018-07-25T12:54:08.720Z,27.20
2018-07-25T12:55:10.818Z,27.80
2018-07-25T12:56:13.074Z,27.90
2018-07-25T12:57:15.268Z,28.40
2018-07-25T12:58:17.542Z,28.50
2018-07-25T12:59:19.759Z,27.60
2018-07-25T13:00:22.009Z,28.00
2018-07-25T13:01:24.221Z,28.10
2018-07-25T13:02:26.462Z,28.00
2018-07-25T13:03:28.769Z,27.70
2018-07-25T13:04:31.069Z,27.70
2018-07-25T13:05:33.371Z,27.80
2018-07-25T13:06:35.642Z,27.80
2018-07-25T13:07:37.930Z,27.40
2018-07-25T13:08:40.121Z,26.70
2018-07-25T13:09:42.355Z,26.30
2018-07-25T13:10:44.607Z,26.30
2018-07-25T13:11:46.815Z,26.80
2018-07-25T13:12:49.026Z,27.00
2018-07-25T13:13:51.252Z,27.00
2018-07-25T13:14:54.245Z,27.40
2018-07-25T13:15:56.507Z,27.60
2018-07-25T13:16:58.693Z,27.50
2018-07-25T13:18:00.912Z,26.70
2018-07-25T13:19:03.287Z,26.60
2018-07-25T13:20:06.023Z,26.70
2018-07-25T13:21:08.257Z,27.40
2018-07-25T13:22:10.516Z,26.70
2018-07-25T13:23:12.755Z,27.00
2018-07-25T13:24:15.026Z,26.20
2018-07-25T13:25:17.279Z,26.50
2018-07-25T13:26:19.509Z,26.30
2018-07-25T13:27:22.141Z,26.80
2018-07-25T13:28:24.364Z,26.50
2018-07-25T13:29:27.220Z,26.30
2018-07-25T13:30:29.458Z,26.60
2018-07-25T13:31:32.069Z,26.50
2018-07-25T13:32:34.286Z,26.50
2018-07-25T13:33:36.497Z,26.10
2018-07-25T13:34:38.713Z,25.80
2018-07-25T13:35:40.961Z,25.30
2018-07-25T13:36:43.221Z,25.00
2018-07-25T13:37:45.405Z,25.10
2018-07-25T13:38:47.629Z,25.10
2018-07-25T13:39:49.838Z,24.20
2018-07-25T13:40:52.085Z,25.10
2018-07-25T13:42:56.758Z,25.10
2018-07-25T13:43:58.970Z,25.40
2018-07-25T13:45:01.177Z,25.10
2018-07-25T13:46:03.563Z,25.10
2018-07-25T13:47:05.689Z,25.10
2018-07-25T13:48:07.914Z,25.70
2018-07-25T13:49:10.142Z,25.30
2018-07-25T13:50:12.377Z,25.00
2018-07-25T13:51:14.614Z,25.10
2018-07-25T13:52:16.869Z,25.10
2018-07-25T13:53:19.109Z,25.10
2018-07-25T13:54:21.331Z,25.10
2018-07-25T13:55:23.622Z,25.10
2018-07-25T13:57:28.077Z,25.10
2018-07-25T13:58:30.291Z,25.10
2018-07-25T13:59:32.514Z,25.10
2018-07-25T14:00:34.746Z,25.10
2018-07-25T14:01:36.980Z,25.10
2018-07-25T14:02:39.205Z,25.10
2018-07-25T14:03:41.401Z,25.10
2018-07-25T14:04:43.607Z,25.00
2018-07-25T14:05:45.845Z,25.00
2018-07-25T14:06:48.070Z,25.20
2018-07-25T14:08:52.567Z,24.90
2018-07-25T14:09:54.815Z,24.80
2018-07-25T14:10:57.074Z,25.00
2018-07-25T14:12:00.407Z,24.80
2018-07-25T14:13:02.638Z,24.70
2018-07-25T14:14:04.873Z,25.10
2018-07-25T14:15:07.127Z,25.40
2018-07-25T14:16:09.543Z,25.40
2018-07-25T14:17:11.770Z,25.70
2018-07-25T14:18:14.062Z,26.00
2018-07-25T14:19:16.262Z,26.10
2018-07-25T14:20:18.478Z,26.40
2018-07-25T14:22:22.973Z,27.10
2018-07-25T14:23:25.306Z,27.40
2018-07-25T14:24:27.618Z,27.80
2018-07-25T14:25:29.758Z,27.90
2018-07-25T14:26:32.026Z,28.20
2018-07-25T14:28:36.474Z,28.90
2018-07-25T14:30:41.066Z,28.40